createdAt,value
2022-09-04T00:02:10.582Z,83.90
2022-09-04T00:04:43.459Z,83.80
2022-09-04T00:07:15.986Z,83.60
2022-09-04T00:10:11.304Z,84.30
2022-09-04T00:12:49.807Z,85.20
2022-09-04T00:15:23.192Z,84.80
2022-09-04T00:18:16.074Z,84.50
2022-09-04T00:21:06.549Z,85.20
2022-09-04T00:23:48.462Z,85.60
2022-09-04T00:26:33.330Z,85.00
2022-09-04T00:29:07.176Z,85.40
2022-09-04T00:31:39.038Z,85.10
2022-09-04T00:34:33.526Z,85.70
2022-09-04T00:37:06.058Z,86.20
2022-09-04T00:39:43.581Z,86.60
2022-09-04T00:42:22.503Z,86.70
2022-09-04T00:45:25.531Z,85.50
2022-09-04T00:48:28.350Z,85.90
2022-09-04T00:50:55.629Z,85.20
2022-09-04T00:53:45.049Z,84.70
2022-09-04T00:56:31.944Z,84.40
2022-09-04T00:59:56.066Z,84.50
2022-09-04T01:02:38.229Z,84.50
2022-09-04T01:05:29.486Z,84.60
2022-09-04T01:08:16.600Z,84.70
2022-09-04T01:10:48.922Z,85.50
2022-09-04T01:13:36.112Z,85.80
2022-09-04T01:16:17.396Z,86.10
2022-09-04T01:19:25.062Z,86.20
2022-09-04T01:22:07.041Z,86.10
2022-09-04T01:25:14.058Z,86.70
2022-09-04T01:28:07.666Z,85.80
2022-09-04T01:30:43.458Z,85.20
2022-09-04T01:33:27.135Z,84.90
2022-09-04T01:36:15.643Z,84.80
2022-09-04T01:38:49.022Z,84.70
2022-09-04T01:41:38.794Z,84.70
2022-09-04T01:44:08.553Z,85.80
2022-09-04T01:47:10.405Z,86.50
2022-09-04T01:50:01.802Z,86.10
2022-09-04T01:52:37.391Z,85.60
2022-09-04T01:55:16.833Z,85.40
2022-09-04T01:58:03.253Z,85.70
2022-09-04T02:00:37.813Z,86.20
2022-09-04T02:03:13.043Z,86.60
2022-09-04T02:06:08.470Z,86.50
2022-09-04T02:09:00.139Z,86.90
2022-09-04T02:11:31.675Z,86.80
2022-09-04T02:14:09.242Z,87.50
2022-09-04T02:16:54.058Z,88.00
2022-09-04T02:19:48.745Z,87.70
2022-09-04T02:22:35.775Z,88.00
2022-09-04T02:25:11.278Z,88.20
2022-09-04T02:27:41.057Z,88.00
2022-09-04T02:30:12.026Z,87.70
2022-09-04T02:33:00.932Z,87.70
2022-09-04T02:35:31.116Z,87.00
2022-09-04T02:38:16.731Z,87.00
2022-09-04T02:40:46.120Z,86.60
2022-09-04T02:43:40.034Z,86.40
2022-09-04T02:46:39.950Z,86.40
2022-09-04T02:49:30.023Z,86.60
2022-09-04T02:52:33.303Z,86.40
2022-09-04T02:55:12.260Z,86.90
2022-09-04T02:57:56.547Z,87.20
2022-09-04T03:00:54.160Z,87.10
2022-09-04T03:03:26.668Z,87.40
2022-09-04T03:05:58.661Z,86.70
2022-09-04T03:08:46.180Z,87.30
2022-09-04T03:11:23.479Z,87.60
2022-09-04T03:13:59.494Z,87.20
2022-09-04T03:16:43.009Z,86.90
2022-09-04T03:19:20.733Z,87.50
2022-09-04T03:22:20.367Z,87.60
2022-09-04T03:24:50.058Z,87.50
2022-09-04T03:27:18.921Z,87.10
2022-09-04T03:30:07.229Z,87.50
2022-09-04T03:33:05.583Z,87.50
2022-09-04T03:35:50.913Z,88.00
2022-09-04T03:38:42.368Z,87.60
2022-09-04T03:41:30.219Z,87.20
2022-09-04T03:44:38.932Z,86.90
2022-09-04T03:47:27.729Z,86.80
2022-09-04T03:50:33.758Z,86.80
2022-09-04T03:53:22.002Z,86.90
2022-09-04T03:56:07.436Z,87.70
2022-09-04T03:59:08.285Z,88.20
2022-09-04T04:02:07.152Z,88.60
2022-09-04T04:04:49.663Z,88.30
2022-09-04T04:07:22.456Z,88.10
2022-09-04T04:10:03.205Z,88.30
2022-09-04T04:13:05.229Z,88.90
2022-09-04T04:15:52.525Z,89.40
2022-09-04T04:18:19.222Z,89.70
2022-09-04T04:21:08.516Z,89.60
2022-09-04T04:23:58.468Z,89.80
2022-09-04T04:27:04.152Z,89.80
2022-09-04T04:29:48.903Z,89.80
2022-09-04T04:32:28.520Z,89.80
2022-09-04T04:35:08.562Z,89.80
2022-09-04T04:38:02.267Z,89.80
2022-09-04T04:40:43.157Z,89.80
2022-09-04T04:43:30.766Z,89.40
2022-09-04T04:46:17.681Z,89.50
2022-09-04T04:49:06.037Z,89.40
2022-09-04T04:51:41.596Z,89.40
2022-09-04T04:54:53.679Z,89.30
2022-09-04T04:57:58.015Z,89.30
2022-09-04T05:00:37.050Z,89.60
2022-09-04T05:03:23.326Z,89.60
2022-09-04T05:06:09.695Z,89.40
2022-09-04T05:09:00.161Z,89.40
2022-09-04T05:11:26.748Z,88.90
2022-09-04T05:14:14.335Z,88.70
2022-09-04T05:17:14.463Z,88.90
2022-09-04T05:20:13.914Z,88.70
2022-09-04T05:22:47.032Z,88.50
2022-09-04T05:25:18.676Z,88.60
2022-09-04T05:28:12.270Z,88.50
2022-09-04T05:30:39.225Z,88.30
2022-09-04T05:33:23.127Z,88.80
2022-09-04T05:36:18.530Z,89.20
2022-09-04T05:39:04.090Z,89.30
2022-09-04T05:41:59.682Z,89.10
2022-09-04T05:45:02.927Z,89.40
2022-09-04T05:47:54.373Z,89.80
2022-09-04T05:50:48.804Z,89.60
2022-09-04T05:53:31.950Z,89.40
2022-09-04T05:56:36.423Z,89.80
2022-09-04T05:59:27.705Z,89.80
2022-09-04T06:02:06.322Z,89.80
2022-09-04T06:04:51.591Z,89.80
2022-09-04T06:07:32.214Z,89.80
2022-09-04T06:10:00.187Z,89.20
2022-09-04T06:12:48.115Z,89.00
2022-09-04T06:15:25.195Z,89.30
2022-09-04T06:18:09.937Z,88.90
2022-09-04T06:20:44.363Z,88.80
2022-09-04T06:23:23.010Z,87.90
2022-09-04T06:26:21.562Z,88.10
2022-09-04T06:28:57.371Z,87.90
2022-09-04T06:31:24.114Z,87.50
2022-09-04T06:34:22.434Z,87.70
2022-09-04T06:36:52.051Z,88.60
2022-09-04T06:39:51.060Z,88.90
2022-09-04T06:42:45.719Z,88.70
2022-09-04T06:45:23.288Z,88.20
2022-09-04T06:48:00.620Z,88.60
2022-09-04T06:51:08.019Z,88.70
2022-09-04T06:53:34.663Z,88.70
2022-09-04T06:56:15.348Z,88.60
2022-09-04T06:59:23.974Z,88.60
2022-09-04T07:02:02.263Z,88.90
2022-09-04T07:04:48.078Z,88.90
2022-09-04T07:08:07.914Z,88.50
2022-09-04T07:10:46.501Z,88.00
2022-09-04T07:13:36.896Z,88.20
2022-09-04T07:16:21.219Z,88.40
2022-09-04T07:19:10.188Z,88.20
2022-09-04T07:22:01.263Z,88.00
2022-09-04T07:24:49.790Z,88.10
2022-09-04T07:27:42.315Z,87.80
2022-09-04T07:30:12.682Z,88.10
2022-09-04T07:33:07.030Z,88.20
2022-09-04T07:36:03.533Z,88.20
2022-09-04T07:39:10.806Z,88.30
2022-09-04T07:42:04.694Z,88.40
2022-09-04T07:44:46.851Z,88.80
2022-09-04T07:47:29.916Z,89.00
2022-09-04T07:50:20.360Z,88.90
2022-09-04T07:53:03.036Z,88.90
2022-09-04T07:55:46.659Z,88.50
2022-09-04T07:58:45.483Z,87.80
2022-09-04T08:01:23.162Z,87.40
2022-09-04T08:03:53.788Z,87.20
2022-09-04T08:06:33.633Z,87.10
2022-09-04T08:09:21.810Z,87.10
2022-09-04T08:12:04.609Z,87.30
2022-09-04T08:14:52.555Z,87.20
2022-09-04T08:17:50.410Z,87.20
2022-09-04T08:20:17.013Z,86.80
2022-09-04T08:23:02.006Z,86.60
2022-09-04T08:25:59.451Z,86.40
2022-09-04T08:28:46.035Z,86.30
2022-09-04T08:31:47.449Z,86.40
2022-09-04T08:34:42.334Z,86.80
2022-09-04T08:37:17.360Z,86.90
2022-09-04T08:39:47.144Z,86.70
2022-09-04T08:42:34.068Z,86.50
2022-09-04T08:45:06.669Z,86.20
2022-09-04T08:47:53.524Z,85.90
2022-09-04T08:50:43.852Z,85.80
2022-09-04T08:53:47.930Z,85.80
2022-09-04T08:56:24.267Z,85.80
2022-09-04T08:59:24.711Z,85.60
2022-09-04T09:02:19.422Z,85.40
2022-09-04T09:05:07.220Z,85.30
2022-09-04T09:08:05.354Z,85.30
2022-09-04T09:10:43.028Z,84.90
2022-09-04T09:13:47.286Z,84.90
2022-09-04T09:16:24.694Z,85.40
2022-09-04T09:19:25.537Z,85.70
2022-09-04T09:22:21.122Z,85.50
2022-09-04T09:24:50.538Z,85.10
2022-09-04T09:27:54.924Z,84.80
2022-09-04T09:30:23.329Z,84.80
2022-09-04T09:32:53.201Z,84.70
2022-09-04T09:35:41.902Z,85.00
2022-09-04T09:38:37.884Z,85.70
2022-09-04T09:41:51.186Z,85.80
2022-09-04T09:44:44.616Z,85.80
2022-09-04T09:47:49.158Z,85.80
2022-09-04T09:51:18.624Z,85.90
2022-09-04T09:54:42.364Z,86.00
2022-09-04T09:57:33.823Z,85.00
2022-09-04T10:00:17.458Z,84.60
2022-09-04T10:03:02.266Z,84.60
2022-09-04T10:05:51.815Z,85.00
2022-09-04T10:08:35.568Z,85.00
2022-09-04T10:11:40.469Z,84.90
2022-09-04T10:14:26.006Z,84.80
2022-09-04T10:17:33.971Z,84.10
2022-09-04T10:20:25.522Z,84.30
2022-09-04T10:23:20.339Z,84.70
2022-09-04T10:26:31.799Z,84.40
2022-09-04T10:29:26.571Z,84.00
2022-09-04T10:32:08.300Z,83.30
2022-09-04T10:34:56.593Z,83.10
2022-09-04T10:37:42.059Z,82.80
2022-09-04T10:40:43.284Z,82.70
2022-09-04T10:43:32.816Z,82.40
2022-09-04T10:46:13.923Z,82.20
2022-09-04T10:48:59.144Z,81.80
2022-09-04T10:51:44.050Z,82.30
2022-09-04T10:54:34.941Z,81.40
2022-09-04T10:57:21.461Z,79.90
2022-09-04T11:00:08.852Z,78.70
2022-09-04T11:02:41.806Z,77.20
2022-09-04T11:05:50.925Z,76.50
2022-09-04T11:08:39.723Z,76.10
2022-09-04T11:11:31.541Z,75.40
2022-09-04T11:14:03.593Z,75.90
2022-09-04T11:16:45.321Z,76.00
2022-09-04T11:19:41.486Z,76.20
2022-09-04T11:22:19.803Z,77.00
2022-09-04T11:25:14.469Z,77.40
2022-09-04T11:28:05.751Z,77.50
2022-09-04T11:31:01.738Z,77.50
2022-09-04T11:34:22.830Z,77.70
2022-09-04T11:36:57.834Z,77.80
2022-09-04T11:39:27.684Z,77.90
2022-09-04T11:41:54.306Z,77.60
2022-09-04T11:44:39.598Z,77.70
2022-09-04T11:47:36.706Z,77.80
2022-09-04T11:50:20.295Z,77.80
2022-09-04T11:53:19.482Z,77.70
2022-09-04T11:56:04.853Z,78.00
2022-09-04T11:58:36.433Z,78.10
2022-09-04T12:01:10.090Z,78.10
2022-09-04T12:04:00.367Z,78.10
2022-09-04T12:07:05.482Z,78.00
2022-09-04T12:10:08.971Z,77.90
2022-09-04T12:12:47.931Z,77.80
2022-09-04T12:15:23.433Z,77.80
2022-09-04T12:18:14.580Z,77.60
2022-09-04T12:20:55.149Z,77.70
2022-09-04T12:23:52.679Z,77.20
2022-09-04T12:27:00.340Z,76.80
2022-09-04T12:29:57.266Z,76.20
2022-09-04T12:32:33.216Z,75.50
2022-09-04T12:35:08.919Z,74.90
2022-09-04T12:37:35.580Z,75.10
2022-09-04T12:40:26.893Z,74.60
2022-09-04T12:43:16.617Z,73.70
2022-09-04T12:45:48.435Z,72.90
2022-09-04T12:48:33.263Z,72.40
2022-09-04T12:51:19.064Z,72.40
2022-09-04T12:54:23.596Z,72.40
2022-09-04T12:57:16.633Z,72.10
2022-09-04T13:00:05.591Z,71.30
2022-09-04T13:02:49.483Z,70.40
2022-09-04T13:05:34.242Z,69.80
2022-09-04T13:08:18.838Z,70.40
2022-09-04T13:11:00.756Z,69.30
2022-09-04T13:13:51.199Z,69.30
2022-09-04T13:16:38.298Z,69.50
2022-09-04T13:19:16.731Z,69.50
2022-09-04T13:21:48.419Z,68.20
2022-09-04T13:24:52.033Z,68.20
2022-09-04T13:27:50.325Z,67.90
2022-09-04T13:30:22.063Z,68.20
2022-09-04T13:33:19.737Z,68.40
2022-09-04T13:35:50.088Z,68.40
2022-09-04T13:38:16.741Z,67.90
2022-09-04T13:41:04.827Z,67.80
2022-09-04T13:44:00.561Z,68.00
2022-09-04T13:46:40.793Z,67.50
2022-09-04T13:49:15.643Z,67.30
2022-09-04T13:51:47.935Z,67.10
2022-09-04T13:54:25.353Z,66.90
2022-09-04T13:57:13.721Z,67.20
2022-09-04T13:59:41.998Z,66.90
2022-09-04T14:02:12.632Z,66.70
2022-09-04T14:04:45.040Z,66.60
2022-09-04T14:07:29.730Z,66.50
2022-09-04T14:10:01.631Z,66.20
2022-09-04T14:12:40.118Z,65.70
2022-09-04T14:15:32.778Z,66.30
2022-09-04T14:18:27.856Z,66.30
2022-09-04T14:21:03.509Z,66.10
2022-09-04T14:23:41.514Z,65.90
2022-09-04T14:26:20.090Z,65.70
2022-09-04T14:28:51.163Z,65.60
2022-09-04T14:31:27.389Z,65.50
2022-09-04T14:34:21.418Z,65.00
2022-09-04T14:37:08.118Z,64.10
2022-09-04T14:40:20.406Z,63.40
2022-09-04T14:42:58.167Z,63.40
2022-09-04T14:45:36.378Z,63.50
2022-09-04T14:48:15.227Z,63.30
2022-09-04T14:51:14.599Z,62.80
2022-09-04T14:53:50.484Z,62.90
2022-09-04T14:56:27.159Z,62.50
2022-09-04T14:59:21.660Z,62.70
2022-09-04T15:02:09.493Z,62.00
2022-09-04T15:05:10.515Z,61.30
2022-09-04T15:07:43.430Z,61.90
2022-09-04T15:10:47.452Z,61.80
2022-09-04T15:13:30.101Z,61.60
2022-09-04T15:16:24.816Z,61.20
2022-09-04T15:18:58.951Z,60.90
2022-09-04T15:21:30.753Z,60.70
2022-09-04T15:24:12.370Z,60.20
2022-09-04T15:26:50.056Z,59.40
2022-09-04T15:29:43.123Z,58.70
2022-09-04T15:32:18.340Z,58.70
2022-09-04T15:34:45.058Z,58.20
2022-09-04T15:37:22.289Z,58.20
2022-09-04T15:40:04.896Z,59.10
2022-09-04T15:43:00.669Z,59.30
2022-09-04T15:45:32.766Z,59.20
2022-09-04T15:48:21.103Z,59.20
2022-09-04T15:51:00.652Z,59.20
2022-09-04T15:53:34.259Z,59.00
2022-09-04T15:56:09.266Z,59.00
2022-09-04T15:58:49.139Z,59.30
2022-09-04T16:01:27.389Z,59.50
2022-09-04T16:04:01.207Z,59.70
2022-09-04T16:06:34.520Z,59.80
2022-09-04T16:09:12.176Z,60.00
2022-09-04T16:11:44.221Z,60.40
2022-09-04T16:14:44.328Z,60.60
2022-09-04T16:17:16.144Z,60.40
2022-09-04T16:20:10.173Z,60.00
2022-09-04T16:22:47.805Z,59.90
2022-09-04T16:25:34.204Z,60.00
2022-09-04T16:28:12.245Z,60.20
2022-09-04T16:30:46.969Z,60.40
2022-09-04T16:33:54.336Z,60.70
2022-09-04T16:36:26.763Z,60.90
2022-09-04T16:39:21.156Z,61.00
2022-09-04T16:41:54.141Z,61.10
2022-09-04T16:44:30.212Z,61.00
2022-09-04T16:47:09.002Z,60.70
2022-09-04T16:49:54.456Z,61.00
2022-09-04T16:52:44.438Z,61.20
2022-09-04T16:55:24.661Z,60.90
2022-09-04T16:58:10.438Z,61.00
2022-09-04T17:01:13.979Z,60.80
2022-09-04T17:03:54.905Z,61.10
2022-09-04T17:07:02.372Z,61.70
2022-09-04T17:09:52.332Z,61.60
2022-09-04T17:12:40.318Z,61.50
2022-09-04T17:15:17.358Z,61.60
2022-09-04T17:17:47.177Z,61.90
2022-09-04T17:20:36.313Z,62.00
2022-09-04T17:28:54.533Z,62.10
2022-09-04T17:29:09.205Z,62.00
2022-09-04T17:29:36.318Z,61.90
2022-09-04T17:38:26.930Z,62.30
2022-09-04T17:40:43.703Z,62.50
2022-09-04T17:40:56.103Z,62.50
2022-09-04T17:42:04.662Z,62.40
2022-09-04T17:44:48.585Z,62.50
2022-09-04T17:47:15.223Z,62.60
2022-09-04T17:49:47.490Z,62.80
2022-09-04T17:52:26.938Z,63.00
2022-09-04T17:55:13.137Z,63.20
2022-09-04T17:57:49.210Z,63.30
2022-09-04T18:00:37.542Z,63.60
2022-09-04T18:04:19.698Z,63.70
2022-09-04T18:07:28.732Z,63.90
2022-09-04T18:10:17.176Z,64.00
2022-09-04T18:12:51.642Z,64.30
2022-09-04T18:15:34.744Z,64.50
2022-09-04T18:18:27.875Z,64.60
2022-09-04T18:21:40.639Z,64.80
2022-09-04T18:24:16.074Z,64.90
2022-09-04T18:26:52.405Z,65.10
2022-09-04T18:30:06.640Z,65.30
2022-09-04T18:37:07.006Z,65.50
2022-09-04T18:37:25.657Z,65.90
2022-09-04T18:38:41.897Z,66.30
2022-09-04T18:46:12.376Z,66.60
2022-09-04T18:50:30.794Z,67.00
2022-09-04T18:50:32.090Z,67.40
2022-09-04T18:50:51.325Z,67.90
2022-09-04T18:53:05.371Z,68.50
2022-09-04T18:55:41.738Z,68.80
2022-09-04T18:58:08.349Z,68.90
2022-09-04T19:00:41.006Z,69.20
2022-09-04T19:03:22.977Z,69.30
2022-09-04T19:05:55.610Z,69.50
2022-09-04T19:08:38.468Z,69.70
2022-09-04T19:11:20.585Z,70.00
2022-09-04T19:14:09.881Z,70.20
2022-09-04T19:16:39.456Z,70.30
2022-09-04T19:19:16.317Z,70.50
2022-09-04T19:21:57.961Z,70.70
2022-09-04T19:24:35.490Z,70.90
2022-09-04T19:27:29.414Z,71.10
2022-09-04T19:30:18.923Z,71.20
2022-09-04T19:32:59.821Z,71.40
2022-09-04T19:35:41.552Z,71.60
2022-09-04T19:46:02.565Z,72.00
2022-09-04T19:46:04.421Z,72.10
2022-09-04T19:46:18.862Z,72.10
2022-09-04T19:47:32.498Z,72.20
2022-09-04T19:53:19.640Z,72.50
2022-09-04T19:53:37.590Z,72.50
2022-09-04T19:56:28.173Z,72.60
2022-09-04T19:59:03.483Z,72.70
2022-09-04T20:01:41.110Z,72.90
2022-09-04T20:04:24.637Z,73.10
2022-09-04T20:06:59.154Z,73.10
2022-09-04T20:09:34.301Z,73.10
2022-09-04T20:12:28.879Z,73.30
2022-09-04T20:15:12.590Z,73.50
2022-09-04T20:17:54.346Z,73.50
2022-09-04T20:20:29.289Z,73.70
2022-09-04T20:22:58.041Z,73.60
2022-09-04T20:25:38.379Z,73.90
2022-09-04T20:28:08.846Z,74.10
2022-09-04T20:30:37.416Z,74.00
2022-09-04T20:33:16.541Z,74.40
2022-09-04T20:36:04.072Z,74.60
2022-09-04T20:38:42.688Z,74.80
2022-09-04T20:41:27.809Z,75.00
2022-09-04T20:44:08.948Z,75.20
2022-09-04T20:50:12.379Z,75.80
2022-09-04T20:52:54.574Z,75.40
2022-09-04T20:52:59.686Z,74.40
2022-09-04T20:55:46.430Z,74.10
2022-09-04T21:02:25.204Z,74.10
2022-09-04T21:03:23.239Z,73.30
2022-09-04T21:05:22.516Z,73.00
2022-09-04T21:08:06.387Z,73.20
2022-09-04T21:10:40.729Z,73.30
2022-09-04T21:13:14.534Z,73.50
2022-09-04T21:15:47.379Z,73.90
2022-09-04T21:19:28.104Z,74.30
2022-09-04T21:22:14.099Z,75.00
2022-09-04T21:25:00.743Z,74.80
2022-09-04T21:28:09.999Z,75.10
2022-09-04T21:30:42.459Z,75.60
2022-09-04T21:33:27.532Z,75.50
2022-09-04T21:36:26.601Z,75.80
2022-09-04T21:39:31.295Z,75.50
2022-09-04T21:42:17.144Z,75.40
2022-09-04T21:44:57.256Z,75.20
2022-09-04T21:47:44.844Z,75.40
2022-09-04T21:50:39.463Z,75.80
2022-09-04T21:53:40.428Z,76.00
2022-09-04T22:02:25.115Z,75.80
2022-09-04T22:02:39.330Z,76.20
2022-09-04T22:02:57.708Z,76.20
2022-09-04T22:05:47.748Z,76.40
2022-09-04T22:11:20.777Z,76.20
2022-09-04T22:13:35.129Z,76.00
2022-09-04T22:14:19.318Z,75.80
2022-09-04T22:17:10.929Z,76.00
2022-09-04T22:19:48.997Z,76.10
2022-09-04T22:22:37.771Z,76.60
2022-09-04T22:25:39.337Z,76.80
2022-09-04T22:28:31.836Z,77.00
2022-09-04T22:31:29.796Z,77.60
2022-09-04T22:34:20.600Z,77.30
2022-09-04T22:37:16.871Z,77.80
2022-09-04T22:40:05.199Z,77.90
2022-09-04T22:42:31.843Z,77.90
2022-09-04T22:45:10.443Z,77.90
2022-09-04T22:48:11.962Z,78.30
2022-09-04T22:50:56.259Z,78.50
2022-09-04T22:53:50.748Z,78.10
2022-09-04T22:56:33.476Z,77.60
2022-09-04T22:59:43.844Z,78.20
2022-09-04T23:02:55.390Z,79.10
2022-09-04T23:05:23.275Z,79.40
2022-09-04T23:13:45.085Z,79.80
2022-09-04T23:13:57.712Z,79.70
2022-09-04T23:14:37.062Z,78.90
2022-09-04T23:17:26.751Z,79.20
2022-09-04T23:24:46.571Z,79.30
2022-09-04T23:26:45.333Z,79.80
2022-09-04T23:26:47.170Z,80.00
2022-09-04T23:29:32.687Z,79.00
2022-09-04T23:32:45.496Z,78.80
2022-09-04T23:35:33.981Z,78.60
2022-09-04T23:38:03.708Z,79.10
2022-09-04T23:40:59.154Z,78.80
2022-09-04T23:43:34.818Z,78.70
2022-09-04T23:46:25.655Z,78.40
2022-09-04T23:49:29.522Z,78.40
2022-09-04T23:52:26.538Z,79.00
2022-09-04T23:55:20.926Z,80.00
2022-09-04T23:58:29.192Z,79.70
